Time;durP1;ratioP1;P1;durP2;ratioP2;P2;SDS_P1;SDS_P2;PMS_P1;PMS_P2;Temp;Humidity;BMP_temperature;BMP_pressure;BME280_temperature;BME280_humidity;BME280_pressure;Samples;Min_cycle;Max_cycle;Signal;HPM_P1;HPM_P2
2020/12/24 05:49:10;;;;;;;8.23;2.05;;;;;;;;;;6247683;23;20493;-82
2020/12/24 05:53:57;;;;;;;8.13;1.95;;;;;;;;;;5112086;27;20486;-81
2020/12/24 05:56:23;;;;;;;9.18;2.17;;;;;;;;;;5115993;28;20028;-80
2020/12/24 05:58:50;;;;;;;7.55;2.13;;;;;;;;;;5118863;28;20019;-80
2020/12/24 06:01:17;;;;;;;9.00;1.48;;;;;;;;;;5098173;23;20056;-82
2020/12/24 06:04:02;;;;;;;6.75;1.85;;;;;;;;;;5046153;28;20445;-82
2020/12/24 06:06:38;;;;;;;9.38;1.90;;;;;;;;;;5040837;28;20033;-82
2020/12/24 06:09:09;;;;;;;8.80;1.90;;;;;;;;;;5038446;28;20540;-82
2020/12/24 06:11:35;;;;;;;;;;;;;;;;;;5041240;28;20036;-82
2020/12/24 06:14:03;;;;;;;6.13;2.08;;;;;;;;;;5038601;28;19909;-82
2020/12/24 06:16:33;;;;;;;5.80;1.60;;;;;;;;;;5040560;28;20030;-82
2020/12/24 06:21:17;;;;;;;8.32;1.98;;;;;;;;;;5111543;27;20351;-82
2020/12/24 06:23:45;;;;;;;11.20;2.20;;;;;;;;;;5124116;28;20395;-82
2020/12/24 06:26:12;;;;;;;7.80;1.30;;;;;;;;;;5124763;28;20027;-82
2020/12/24 06:28:39;;;;;;;10.05;1.65;;;;;;;;;;5119478;28;20070;-82
2020/12/24 06:31:05;;;;;;;7.63;1.77;;;;;;;;;;5118722;28;20015;-82
2020/12/24 06:35:49;;;;;;;10.02;2.70;;;;;;;;;;5110314;27;20355;-82
2020/12/24 06:40:37;;;;;;;10.13;1.65;;;;;;;;;;5112509;27;20384;-82
2020/12/24 06:43:03;;;;;;;5.35;1.38;;;;;;;;;;5111869;28;20480;-82
2020/12/24 06:45:29;;;;;;;5.15;1.30;;;;;;;;;;5121303;28;20031;-82
2020/12/24 06:48:19;;;;;;;7.57;2.40;;;;;;;;;;5117292;28;20024;-82
2020/12/24 06:50:45;;;;;;;4.35;1.67;;;;;;;;;;5110327;28;20020;-82
2020/12/24 06:53:30;;;;;;;7.43;1.85;;;;;;;;;;5121539;28;20476;-82
2020/12/24 06:56:15;;;;;;;4.63;1.30;;;;;;;;;;5111111;28;20107;-81
2020/12/24 06:58:45;;;;;;;10.18;2.60;;;;;;;;;;5122735;28;20063;-82
2020/12/24 07:01:20;;;;;;;5.78;1.65;;;;;;;;;;5104351;28;20435;-82
2020/12/24 07:06:06;;;;;;;6.22;1.98;;;;;;;;;;5112620;27;20933;-83
2020/12/24 07:08:35;;;;;;;4.95;1.30;;;;;;;;;;5131214;28;20039;-83
2020/12/24 07:11:01;;;;;;;5.47;1.10;;;;;;;;;;5120612;28;20391;-83
2020/12/24 07:13:30;;;;;;;4.22;1.25;;;;;;;;;;5128577;28;20043;-83
2020/12/24 07:15:56;;;;;;;5.78;1.20;;;;;;;;;;5129944;28;20020;-83
2020/12/24 07:18:23;;;;;;;6.57;1.35;;;;;;;;;;5112882;28;20024;-83
2020/12/24 07:20:50;;;;;;;4.47;1.45;;;;;;;;;;5133444;28;20019;-83
2020/12/24 07:23:18;;;;;;;5.35;1.65;;;;;;;;;;5120979;28;20047;-83
2020/12/24 07:25:46;;;;;;;8.75;2.03;;;;;;;;;;5123567;28;20028;-83
2020/12/24 07:28:16;;;;;;;6.53;1.13;;;;;;;;;;5117221;28;20020;-83
2020/12/24 07:30:42;;;;;;;6.53;1.27;;;;;;;;;;5128593;28;20079;-83
2020/12/24 07:35:43;;;;;;;4.63;1.67;;;;;;;;;;5092550;28;20370;-83
2020/12/24 07:38:09;;;;;;;6.35;1.30;;;;;;;;;;5090958;28;20397;-83
2020/12/24 07:40:35;;;;;;;5.75;1.10;;;;;;;;;;5098660;28;20387;-83
2020/12/24 07:43:08;;;;;;;9.68;4.03;;;;;;;;;;5092409;28;20024;-83
2020/12/24 07:45:34;;;;;;;4.57;1.70;;;;;;;;;;5091772;28;20560;-83
2020/12/24 07:48:00;;;;;;;9.82;2.65;;;;;;;;;;5096391;28;20031;-83
2020/12/24 07:50:32;;;;;;;7.40;3.15;;;;;;;;;;5092020;28;20020;-83
2020/12/24 07:52:58;;;;;;;6.68;2.85;;;;;;;;;;5081834;28;20051;-83
2020/12/24 07:55:24;;;;;;;27.05;17.30;;;;;;;;;;5092537;28;20020;-83
2020/12/24 08:00:08;;;;;;;40.70;19.55;;;;;;;;;;5120393;27;20340;-81
2020/12/24 08:02:34;;;;;;;70.95;34.75;;;;;;;;;;5098545;28;20434;-81
2020/12/24 08:05:00;;;;;;;48.67;25.15;;;;;;;;;;5096140;28;20024;-81
2020/12/24 08:07:26;;;;;;;45.13;22.17;;;;;;;;;;5093948;28;20024;-81
2020/12/24 08:09:52;;;;;;;35.03;15.65;;;;;;;;;;5101444;28;20080;-81
2020/12/24 08:12:22;;;;;;;14.75;6.93;;;;;;;;;;5100588;28;20035;-81
2020/12/24 08:14:48;;;;;;;9.52;3.33;;;;;;;;;;5092158;28;20071;-81
2020/12/24 08:17:34;;;;;;;2.67;1.20;;;;;;;;;;5104734;28;20047;-81
2020/12/24 08:20:06;;;;;;;6.65;1.73;;;;;;;;;;5099798;28;20214;-81
2020/12/24 08:22:43;;;;;;;6.05;1.70;;;;;;;;;;5103766;28;20047;-81
2020/12/24 08:25:09;;;;;;;6.85;1.55;;;;;;;;;;5093457;28;20020;-80
2020/12/24 08:27:35;;;;;;;3.97;1.20;;;;;;;;;;5099602;28;20407;-80
2020/12/24 08:30:01;;;;;;;4.22;1.60;;;;;;;;;;5102199;28;20032;-80
2020/12/24 08:32:28;;;;;;;5.05;1.00;;;;;;;;;;5102153;28;20031;-80
2020/12/24 08:34:54;;;;;;;2.78;0.88;;;;;;;;;;5104612;28;20035;-80
2020/12/24 08:37:29;;;;;;;6.50;1.70;;;;;;;;;;5104730;28;20028;-82
2020/12/24 08:39:55;;;;;;;4.68;1.33;;;;;;;;;;5103814;28;20032;-80
2020/12/24 08:42:23;;;;;;;5.15;1.40;;;;;;;;;;5103659;28;20031;-80
2020/12/24 08:44:58;;;;;;;5.35;1.30;;;;;;;;;;5104837;28;20024;-81
2020/12/24 08:47:24;;;;;;;6.13;1.42;;;;;;;;;;5088969;28;20077;-81
2020/12/24 08:49:50;;;;;;;4.30;1.60;;;;;;;;;;5099318;28;20028;-81
2020/12/24 08:52:18;;;;;;;3.85;1.63;;;;;;;;;;5097921;28;20545;-81
2020/12/24 08:54:59;;;;;;;6.90;2.38;;;;;;;;;;5106394;28;20376;-81
2020/12/24 08:57:26;;;;;;;5.88;1.70;;;;;;;;;;5092888;28;20035;-81
2020/12/24 08:59:58;;;;;;;4.22;1.92;;;;;;;;;;5104018;28;20032;-81
2020/12/24 09:02:25;;;;;;;5.40;2.10;;;;;;;;;;5114214;28;20099;-81
2020/12/24 09:04:58;;;;;;;5.35;1.80;;;;;;;;;;5108612;28;20032;-81
2020/12/24 09:07:25;;;;;;;3.75;1.33;;;;;;;;;;5104948;28;20039;-81
2020/12/24 09:10:00;;;;;;;4.78;1.48;;;;;;;;;;5102190;28;20482;-81
2020/12/24 09:12:27;;;;;;;3.65;1.38;;;;;;;;;;5084352;28;20036;-81
2020/12/24 09:15:03;;;;;;;4.35;1.30;;;;;;;;;;5087406;28;20032;-82
2020/12/24 09:17:29;;;;;;;5.15;2.03;;;;;;;;;;5081687;28;20060;-81
2020/12/24 09:20:21;;;;;;;4.13;1.73;;;;;;;;;;5088320;28;20024;-81
2020/12/24 09:22:51;;;;;;;6.10;1.40;;;;;;;;;;5084410;28;20036;-81
2020/12/24 09:25:32;;;;;;;4.53;1.67;;;;;;;;;;5095453;28;20023;-81
2020/12/24 09:27:59;;;;;;;3.38;1.48;;;;;;;;;;5082263;28;20028;-82
2020/12/24 09:30:25;;;;;;;9.65;2.90;;;;;;;;;;5077900;28;20081;-81
2020/12/24 09:32:58;;;;;;;11.25;4.40;;;;;;;;;;5079895;28;20091;-81
2020/12/24 09:35:25;;;;;;;9.60;3.08;;;;;;;;;;5086580;28;20013;-81
2020/12/24 09:37:51;;;;;;;7.25;2.58;;;;;;;;;;5082880;28;20115;-81
2020/12/24 09:40:17;;;;;;;5.30;2.20;;;;;;;;;;5084713;28;20032;-80
2020/12/24 09:42:43;;;;;;;13.32;4.13;;;;;;;;;;5083924;28;20036;-81
2020/12/24 09:45:09;;;;;;;16.85;7.40;;;;;;;;;;5099300;28;20017;-81
2020/12/24 09:47:35;;;;;;;14.52;4.25;;;;;;;;;;5090789;28;20046;-81
2020/12/24 09:50:01;;;;;;;13.35;4.80;;;;;;;;;;5087344;28;20040;-81
2020/12/24 09:52:27;;;;;;;8.27;3.10;;;;;;;;;;5089411;28;20054;-81
2020/12/24 09:54:53;;;;;;;16.25;6.32;;;;;;;;;;5090043;28;20365;-80
2020/12/24 09:57:19;;;;;;;11.93;4.78;;;;;;;;;;5091830;28;20061;-80
2020/12/24 09:59:45;;;;;;;10.38;4.88;;;;;;;;;;5082519;28;20396;-81
2020/12/24 10:02:11;;;;;;;5.90;2.53;;;;;;;;;;5094380;28;20036;-81
2020/12/24 10:04:37;;;;;;;3.97;2.03;;;;;;;;;;5089250;28;20025;-81
2020/12/24 10:07:02;;;;;;;5.22;1.40;;;;;;;;;;5083411;28;20027;-81
2020/12/24 10:09:28;;;;;;;3.47;1.65;;;;;;;;;;5086245;28;20385;-81
2020/12/24 10:11:54;;;;;;;5.90;2.63;;;;;;;;;;5082474;28;20034;-81
2020/12/24 10:14:20;;;;;;;7.55;2.95;;;;;;;;;;5084119;28;20059;-80
2020/12/24 10:16:46;;;;;;;3.30;1.42;;;;;;;;;;5088108;28;20016;-80
2020/12/24 10:19:12;;;;;;;4.18;1.60;;;;;;;;;;5078816;28;20028;-80
2020/12/24 10:21:39;;;;;;;5.93;2.17;;;;;;;;;;5084607;28;20024;-81
2020/12/24 10:24:05;;;;;;;3.95;1.65;;;;;;;;;;5085460;28;20017;-81
2020/12/24 10:26:31;;;;;;;4.95;2.53;;;;;;;;;;5094123;28;20039;-80
2020/12/24 10:28:57;;;;;;;3.80;2.00;;;;;;;;;;5084924;28;20032;-80
2020/12/24 10:31:23;;;;;;;3.08;1.30;;;;;;;;;;5086438;28;20021;-80
2020/12/24 10:33:49;;;;;;;2.53;0.98;;;;;;;;;;5095580;28;20028;-80
2020/12/24 10:36:25;;;;;;;3.13;1.40;;;;;;;;;;5092319;28;20508;-80
2020/12/24 10:38:51;;;;;;;2.08;1.00;;;;;;;;;;5085115;28;20078;-80
2020/12/24 10:41:18;;;;;;;4.32;1.17;;;;;;;;;;5090077;28;20024;-80
2020/12/24 10:43:44;;;;;;;2.92;0.93;;;;;;;;;;5093638;28;20383;-80
2020/12/24 10:46:21;;;;;;;4.28;2.00;;;;;;;;;;5095016;28;20085;-80
2020/12/24 10:48:47;;;;;;;2.97;1.30;;;;;;;;;;5086415;28;20024;-82
2020/12/24 10:51:14;;;;;;;3.15;1.27;;;;;;;;;;5075296;28;20431;-80
2020/12/24 10:53:40;;;;;;;5.32;2.47;;;;;;;;;;5075655;28;20039;-80
2020/12/24 10:56:10;;;;;;;4.45;2.03;;;;;;;;;;5075763;28;20107;-80
2020/12/24 10:58:36;;;;;;;5.55;3.08;;;;;;;;;;5092031;28;20039;-80
2020/12/24 11:01:02;;;;;;;6.90;3.15;;;;;;;;;;5094646;28;20031;-80
2020/12/24 11:03:29;;;;;;;6.22;3.30;;;;;;;;;;5078083;28;20072;-80
2020/12/24 11:05:55;;;;;;;3.13;1.77;;;;;;;;;;5074541;28;20017;-80
2020/12/24 11:08:21;;;;;;;2.67;1.27;;;;;;;;;;5080477;28;20032;-81
2020/12/24 11:10:47;;;;;;;2.40;1.13;;;;;;;;;;5072333;28;20028;-83
2020/12/24 11:13:13;;;;;;;1.92;1.00;;;;;;;;;;5071955;28;20039;-82
2020/12/24 11:15:39;;;;;;;2.78;0.90;;;;;;;;;;5081153;28;20028;-81
2020/12/24 11:18:05;;;;;;;2.17;1.00;;;;;;;;;;5076558;28;20036;-82
2020/12/24 11:20:31;;;;;;;3.15;0.90;;;;;;;;;;5079899;28;20051;-81
2020/12/24 11:22:57;;;;;;;3.17;1.20;;;;;;;;;;5081609;28;20563;-81
2020/12/24 11:25:23;;;;;;;2.72;1.35;;;;;;;;;;5074176;28;20031;-81
2020/12/24 11:27:49;;;;;;;4.28;1.25;;;;;;;;;;5079575;28;20020;-81
2020/12/24 11:30:15;;;;;;;3.90;1.60;;;;;;;;;;5087961;28;20031;-81
2020/12/24 11:32:41;;;;;;;3.60;1.45;;;;;;;;;;5078777;28;20365;-81
2020/12/24 11:35:07;;;;;;;3.92;1.67;;;;;;;;;;5081441;28;20026;-81
2020/12/24 11:37:33;;;;;;;6.50;2.90;;;;;;;;;;5080974;28;20443;-81
2020/12/24 11:39:59;;;;;;;4.45;2.60;;;;;;;;;;5082750;28;20145;-81
2020/12/24 11:42:25;;;;;;;5.00;2.72;;;;;;;;;;5080148;28;20391;-81
2020/12/24 11:44:51;;;;;;;11.85;6.70;;;;;;;;;;5078880;28;20033;-81
2020/12/24 11:47:17;;;;;;;5.22;2.53;;;;;;;;;;5079768;28;20028;-81
2020/12/24 11:49:43;;;;;;;5.97;3.55;;;;;;;;;;5082731;28;20059;-81
2020/12/24 11:52:08;;;;;;;2.40;0.95;;;;;;;;;;5081851;28;20025;-81
2020/12/24 11:54:34;;;;;;;2.38;0.90;;;;;;;;;;5079197;28;20384;-81
2020/12/24 11:57:00;;;;;;;4.05;1.35;;;;;;;;;;5081845;28;20542;-81
2020/12/24 11:59:26;;;;;;;3.38;1.77;;;;;;;;;;5082396;28;20036;-81
2020/12/24 12:04:11;;;;;;;2.95;1.13;;;;;;;;;;5102217;27;20875;-81
2020/12/24 12:06:37;;;;;;;3.67;1.20;;;;;;;;;;5085824;28;20025;-81
2020/12/24 12:09:03;;;;;;;2.30;0.98;;;;;;;;;;5088392;28;20024;-81
2020/12/24 12:11:29;;;;;;;3.97;1.35;;;;;;;;;;5077818;28;20103;-81
2020/12/24 12:13:55;;;;;;;2.90;1.10;;;;;;;;;;5080590;28;20031;-79
2020/12/24 12:16:24;;;;;;;2.10;0.85;;;;;;;;;;5083377;28;20020;-80
2020/12/24 12:18:50;;;;;;;2.00;0.80;;;;;;;;;;5079918;28;20017;-80
2020/12/24 12:21:20;;;;;;;2.00;0.80;;;;;;;;;;5081797;28;20496;-80
2020/12/24 12:26:15;;;;;;;2.78;1.20;;;;;;;;;;5090729;28;20048;-83
2020/12/24 12:28:46;;;;;;;2.30;0.77;;;;;;;;;;5089439;28;20074;-83
2020/12/24 12:31:15;;;;;;;2.10;0.88;;;;;;;;;;5091413;28;20021;-81
2020/12/24 12:35:59;;;;;;;2.65;0.65;;;;;;;;;;5109498;27;20360;-83
2020/12/24 12:38:25;;;;;;;2.42;0.70;;;;;;;;;;5097820;28;20082;-80
2020/12/24 12:40:51;;;;;;;1.98;0.80;;;;;;;;;;5104305;28;20031;-80
2020/12/24 12:43:33;;;;;;;1.90;0.90;;;;;;;;;;5103217;28;20024;-81
2020/12/24 12:45:59;;;;;;;1.58;0.70;;;;;;;;;;5104247;28;20488;-81
2020/12/24 12:48:24;;;;;;;2.38;0.95;;;;;;;;;;5108484;28;20020;-84
2020/12/24 12:50:50;;;;;;;5.25;1.60;;;;;;;;;;5103773;28;20028;-82
2020/12/24 12:53:16;;;;;;;3.45;1.58;;;;;;;;;;5105075;28;20016;-80
2020/12/24 12:55:42;;;;;;;2.90;1.23;;;;;;;;;;5099625;28;20029;-81
2020/12/24 12:58:08;;;;;;;3.30;1.45;;;;;;;;;;5096209;28;20012;-81
2020/12/24 13:00:34;;;;;;;2.83;1.35;;;;;;;;;;5102156;28;20142;-80
2020/12/24 13:03:00;;;;;;;4.50;2.28;;;;;;;;;;5107494;28;20057;-82
2020/12/24 13:05:26;;;;;;;4.97;2.90;;;;;;;;;;5098498;28;20039;-80
2020/12/24 13:07:52;;;;;;;4.00;1.90;;;;;;;;;;5100006;28;20504;-81
2020/12/24 13:10:18;;;;;;;5.80;2.03;;;;;;;;;;5103058;28;20032;-81
2020/12/24 13:12:44;;;;;;;2.50;1.17;;;;;;;;;;5092918;28;20492;-81
2020/12/24 13:15:10;;;;;;;2.90;1.35;;;;;;;;;;5086277;28;20032;-80
2020/12/24 13:17:36;;;;;;;1.77;0.80;;;;;;;;;;5093188;28;20035;-81
2020/12/24 13:20:02;;;;;;;3.20;1.63;;;;;;;;;;5108789;28;20070;-83
2020/12/24 13:22:28;;;;;;;3.28;1.67;;;;;;;;;;5101392;28;20043;-83
2020/12/24 13:24:54;;;;;;;6.57;4.35;;;;;;;;;;5102560;28;20107;-82
2020/12/24 13:27:20;;;;;;;6.32;4.63;;;;;;;;;;5093787;28;20092;-83
2020/12/24 13:29:46;;;;;;;5.50;3.13;;;;;;;;;;5107299;28;20047;-83
2020/12/24 13:32:12;;;;;;;4.72;2.72;;;;;;;;;;5102562;28;20027;-83
2020/12/24 13:34:37;;;;;;;5.53;2.95;;;;;;;;;;5100786;28;20122;-83
2020/12/24 13:37:04;;;;;;;5.00;2.85;;;;;;;;;;5108378;28;20487;-82
2020/12/24 13:39:30;;;;;;;4.50;1.95;;;;;;;;;;5097443;28;20070;-83
2020/12/24 13:41:55;;;;;;;5.88;2.22;;;;;;;;;;5097779;28;20031;-83
2020/12/24 13:44:21;;;;;;;5.15;3.40;;;;;;;;;;5100476;28;20110;-82
2020/12/24 13:46:48;;;;;;;8.38;3.15;;;;;;;;;;5091262;28;20024;-83
2020/12/24 13:49:14;;;;;;;3.97;1.98;;;;;;;;;;5087348;28;20028;-83
2020/12/24 13:51:40;;;;;;;21.15;13.40;;;;;;;;;;5088056;28;20035;-83
2020/12/24 13:54:06;;;;;;;17.35;11.77;;;;;;;;;;5088379;28;20032;-83
2020/12/24 13:56:32;;;;;;;6.88;2.40;;;;;;;;;;5088169;28;20027;-83
2020/12/24 13:58:58;;;;;;;8.95;5.80;;;;;;;;;;5091913;28;20058;-83
2020/12/24 14:01:24;;;;;;;12.05;7.00;;;;;;;;;;5088615;28;20490;-82
2020/12/24 14:03:50;;;;;;;15.00;9.23;;;;;;;;;;5090710;28;20377;-82
2020/12/24 14:06:16;;;;;;;10.13;5.93;;;;;;;;;;5072683;28;20029;-82
2020/12/24 14:08:42;;;;;;;8.35;4.90;;;;;;;;;;5088020;28;20078;-82
2020/12/24 14:11:08;;;;;;;21.42;11.52;;;;;;;;;;5088111;28;20028;-83
2020/12/24 14:13:34;;;;;;;15.40;10.00;;;;;;;;;;5087432;28;20491;-83
2020/12/24 14:16:00;;;;;;;12.30;7.72;;;;;;;;;;5088612;28;20035;-82
2020/12/24 14:18:26;;;;;;;9.55;5.70;;;;;;;;;;5086499;28;20078;-82
2020/12/24 14:20:52;;;;;;;9.38;5.68;;;;;;;;;;5089919;28;20024;-83
2020/12/24 14:23:20;;;;;;;13.00;4.93;;;;;;;;;;5080491;28;20024;-82
2020/12/24 14:25:46;;;;;;;7.18;3.55;;;;;;;;;;5088919;28;20062;-82
2020/12/24 14:28:12;;;;;;;5.78;3.20;;;;;;;;;;5089655;28;20077;-82
2020/12/24 14:30:38;;;;;;;2.97;1.40;;;;;;;;;;5086180;28;20024;-82
2020/12/24 14:33:04;;;;;;;3.53;1.77;;;;;;;;;;5090801;28;20024;-82
2020/12/24 14:35:30;;;;;;;2.58;1.20;;;;;;;;;;5086669;28;20717;-82
2020/12/24 14:37:57;;;;;;;2.70;1.10;;;;;;;;;;5089575;28;20024;-83
2020/12/24 14:40:23;;;;;;;6.97;1.30;;;;;;;;;;5087937;28;20035;-83
2020/12/24 14:42:49;;;;;;;3.05;1.20;;;;;;;;;;5084578;28;20024;-83
2020/12/24 14:45:15;;;;;;;2.92;1.10;;;;;;;;;;5079977;28;20036;-82
2020/12/24 14:47:42;;;;;;;3.13;1.35;;;;;;;;;;5092914;28;20031;-83
2020/12/24 14:50:08;;;;;;;4.40;1.33;;;;;;;;;;5089277;28;20035;-83
2020/12/24 14:52:34;;;;;;;2.90;1.30;;;;;;;;;;5085894;28;20046;-83
2020/12/24 14:55:00;;;;;;;2.72;1.27;;;;;;;;;;5079863;28;20027;-83
2020/12/24 14:57:26;;;;;;;2.72;1.45;;;;;;;;;;5087690;28;20383;-82
2020/12/24 14:59:52;;;;;;;4.15;1.50;;;;;;;;;;5084608;28;20029;-83
2020/12/24 15:02:18;;;;;;;3.70;2.40;;;;;;;;;;5087635;28;20028;-83
2020/12/24 15:04:44;;;;;;;4.93;2.20;;;;;;;;;;5087122;28;20024;-83
2020/12/24 15:07:09;;;;;;;3.80;2.20;;;;;;;;;;5092760;28;20076;-82
2020/12/24 15:09:35;;;;;;;3.95;1.55;;;;;;;;;;5085823;28;20111;-82
2020/12/24 15:12:01;;;;;;;2.63;1.30;;;;;;;;;;5082343;28;20101;-82
2020/12/24 15:14:27;;;;;;;2.97;1.48;;;;;;;;;;5088568;28;20024;-83
2020/12/24 15:16:53;;;;;;;2.40;1.13;;;;;;;;;;5083669;28;20039;-83
2020/12/24 15:19:19;;;;;;;2.08;1.00;;;;;;;;;;5083038;28;20088;-83
2020/12/24 15:21:45;;;;;;;2.10;1.00;;;;;;;;;;5083847;28;20012;-83
2020/12/24 15:24:11;;;;;;;2.28;0.90;;;;;;;;;;5082304;28;20031;-83
2020/12/24 15:26:37;;;;;;;3.45;1.00;;;;;;;;;;5092289;28;20422;-83
2020/12/24 15:29:04;;;;;;;2.22;1.05;;;;;;;;;;5083671;28;20477;-83
2020/12/24 15:31:34;;;;;;;2.97;1.00;;;;;;;;;;5084602;28;20033;-82
2020/12/24 15:34:00;;;;;;;2.00;0.80;;;;;;;;;;5088119;28;20039;-83
2020/12/24 15:36:26;;;;;;;1.58;0.80;;;;;;;;;;5083965;28;20447;-83
2020/12/24 15:38:52;;;;;;;2.13;1.00;;;;;;;;;;5083770;28;20071;-82
2020/12/24 15:41:18;;;;;;;5.10;1.15;;;;;;;;;;5085503;28;20055;-82
2020/12/24 15:43:44;;;;;;;2.03;0.80;;;;;;;;;;5094372;28;20020;-82
2020/12/24 15:46:10;;;;;;;1.70;0.75;;;;;;;;;;5084366;28;20016;-82
2020/12/24 15:48:36;;;;;;;1.90;0.90;;;;;;;;;;5092633;28;20020;-82
2020/12/24 15:51:05;;;;;;;2.53;1.40;;;;;;;;;;5087184;28;20268;-82
2020/12/24 15:53:31;;;;;;;3.45;2.10;;;;;;;;;;5084618;28;20016;-83
2020/12/24 15:55:57;;;;;;;2.53;1.38;;;;;;;;;;5089418;28;20048;-82
2020/12/24 15:58:24;;;;;;;3.00;1.10;;;;;;;;;;5084053;28;20017;-82
2020/12/24 16:00:50;;;;;;;2.22;0.93;;;;;;;;;;5086602;28;20031;-83
2020/12/24 16:03:16;;;;;;;1.73;0.73;;;;;;;;;;5088871;28;20534;-83
2020/12/24 16:08:00;;;;;;;2.47;1.00;;;;;;;;;;5120833;27;20351;-83
2020/12/24 16:10:26;;;;;;;3.28;0.90;;;;;;;;;;5102734;28;20078;-83
2020/12/24 16:12:52;;;;;;;2.70;0.95;;;;;;;;;;5107538;28;20031;-83
2020/12/24 16:15:18;;;;;;;2.05;1.00;;;;;;;;;;5096479;28;20075;-82
2020/12/24 16:17:43;;;;;;;2.15;1.08;;;;;;;;;;5102495;28;20106;-82
2020/12/24 16:20:09;;;;;;;5.13;1.00;;;;;;;;;;5095830;28;20038;-83
2020/12/24 16:22:35;;;;;;;2.22;1.00;;;;;;;;;;5102239;28;20055;-83
2020/12/24 16:25:01;;;;;;;1.85;0.95;;;;;;;;;;5110785;28;20024;-82
2020/12/24 16:27:27;;;;;;;3.22;0.88;;;;;;;;;;5109408;28;20052;-83
2020/12/24 16:29:53;;;;;;;2.33;1.10;;;;;;;;;;5104108;28;20100;-83
2020/12/24 16:32:19;;;;;;;2.55;1.42;;;;;;;;;;5101191;28;20012;-83
2020/12/24 16:34:45;;;;;;;2.70;1.38;;;;;;;;;;5097961;28;20103;-83
2020/12/24 16:37:11;;;;;;;3.33;1.40;;;;;;;;;;5088022;28;20088;-83
2020/12/24 16:39:37;;;;;;;2.60;1.30;;;;;;;;;;5101346;28;20062;-82
2020/12/24 16:42:06;;;;;;;2.88;1.10;;;;;;;;;;5109030;28;20038;-83
2020/12/24 16:44:35;;;;;;;2.90;1.20;;;;;;;;;;5100737;28;20035;-82
2020/12/24 16:47:04;;;;;;;3.60;1.30;;;;;;;;;;5098477;28;20059;-83
2020/12/24 16:49:30;;;;;;;2.22;1.08;;;;;;;;;;5098489;28;20028;-83
2020/12/24 16:51:57;;;;;;;2.40;0.95;;;;;;;;;;5103081;28;20034;-82
2020/12/24 16:54:23;;;;;;;2.22;1.13;;;;;;;;;;5101863;28;20024;-82
2020/12/24 16:56:49;;;;;;;2.78;1.00;;;;;;;;;;5100146;28;20035;-83
2020/12/24 16:59:15;;;;;;;2.30;0.75;;;;;;;;;;5099605;28;20069;-83
2020/12/24 17:01:41;;;;;;;4.35;1.20;;;;;;;;;;5111269;28;20093;-83
2020/12/24 17:04:07;;;;;;;2.13;1.05;;;;;;;;;;5106538;28;20023;-83
2020/12/24 17:06:33;;;;;;;2.25;0.90;;;;;;;;;;5094936;28;20048;-82
2020/12/24 17:08:59;;;;;;;2.15;1.00;;;;;;;;;;5103024;28;20023;-83
2020/12/24 17:11:25;;;;;;;1.95;0.80;;;;;;;;;;5096092;28;20102;-82
2020/12/24 17:13:51;;;;;;;2.72;1.17;;;;;;;;;;5108101;28;20537;-83
2020/12/24 17:18:36;;;;;;;2.63;1.33;;;;;;;;;;5132414;27;20407;-83
2020/12/24 17:21:02;;;;;;;2.75;1.30;;;;;;;;;;5110413;28;20476;-83
2020/12/24 17:23:28;;;;;;;3.22;1.17;;;;;;;;;;5111937;28;20024;-83
2020/12/24 17:25:54;;;;;;;3.78;1.42;;;;;;;;;;5111481;28;20444;-83
2020/12/24 17:28:20;;;;;;;4.28;2.92;;;;;;;;;;5109928;28;20024;-83
2020/12/24 17:30:46;;;;;;;3.63;2.05;;;;;;;;;;5095268;28;20028;-83
2020/12/24 17:33:12;;;;;;;4.45;1.63;;;;;;;;;;5104696;28;20057;-82
2020/12/24 17:35:38;;;;;;;4.78;1.20;;;;;;;;;;5111027;28;20028;-83
2020/12/24 17:38:04;;;;;;;2.30;1.13;;;;;;;;;;5105563;28;20023;-83
2020/12/24 17:40:30;;;;;;;1.52;0.85;;;;;;;;;;5110460;28;20452;-83
2020/12/24 17:42:56;;;;;;;1.90;0.70;;;;;;;;;;5111567;28;20012;-82
2020/12/24 17:45:22;;;;;;;1.38;0.63;;;;;;;;;;5109012;28;20047;-82
2020/12/24 17:47:48;;;;;;;1.52;0.60;;;;;;;;;;5111842;28;20031;-83
2020/12/24 17:50:14;;;;;;;1.85;0.63;;;;;;;;;;5109339;28;20055;-83
2020/12/24 17:52:41;;;;;;;1.73;0.45;;;;;;;;;;5109606;28;20023;-83
2020/12/24 17:55:07;;;;;;;1.23;0.50;;;;;;;;;;5111550;28;20099;-83
2020/12/24 17:57:32;;;;;;;1.42;0.70;;;;;;;;;;5107285;28;20051;-83
2020/12/24 17:59:58;;;;;;;1.65;0.70;;;;;;;;;;5104520;28;20471;-83
2020/12/24 18:02:33;;;;;;;1.92;0.80;;;;;;;;;;5110006;28;20023;-82
2020/12/24 18:04:59;;;;;;;1.13;0.50;;;;;;;;;;5096678;28;20026;-82
2020/12/24 18:07:27;;;;;;;1.20;0.60;;;;;;;;;;5101002;28;20035;-82
2020/12/24 18:09:53;;;;;;;1.95;0.88;;;;;;;;;;5111364;28;20031;-83
2020/12/24 18:12:20;;;;;;;1.55;0.60;;;;;;;;;;5112106;28;20024;-83
2020/12/24 18:14:46;;;;;;;3.97;1.98;;;;;;;;;;5107130;28;20042;-82
2020/12/24 18:17:12;;;;;;;1.20;0.50;;;;;;;;;;5105752;28;20402;-83
2020/12/24 18:19:38;;;;;;;4.00;1.35;;;;;;;;;;5111019;28;20102;-83
2020/12/24 18:22:04;;;;;;;2.72;1.38;;;;;;;;;;5110662;28;20046;-82
2020/12/24 18:24:30;;;;;;;1.90;1.00;;;;;;;;;;5104673;28;20082;-83
2020/12/24 18:26:56;;;;;;;2.80;1.17;;;;;;;;;;5110402;28;20102;-82
2020/12/24 18:29:22;;;;;;;1.70;0.77;;;;;;;;;;5100085;28;20016;-83
2020/12/24 18:31:49;;;;;;;2.05;0.63;;;;;;;;;;5088742;28;20028;-82
2020/12/24 18:34:15;;;;;;;1.90;0.80;;;;;;;;;;5091261;28;20111;-83
2020/12/24 18:36:41;;;;;;;1.90;0.80;;;;;;;;;;5078245;28;20112;-83
2020/12/24 18:39:07;;;;;;;2.28;0.90;;;;;;;;;;5096273;28;20716;-83
2020/12/24 18:41:33;;;;;;;1.98;0.73;;;;;;;;;;5098263;28;20062;-83
2020/12/24 18:43:59;;;;;;;2.15;1.00;;;;;;;;;;5096726;28;20487;-83
2020/12/24 18:46:25;;;;;;;3.25;1.27;;;;;;;;;;5092843;28;20032;-83
2020/12/24 18:48:51;;;;;;;0.88;0.45;;;;;;;;;;5088123;28;20426;-83
2020/12/24 18:59:03;;;;;;;2.00;0.70;;;;;;;;;;5033386;28;20072;-84
2020/12/24 19:01:35;;;;;;;1.73;0.70;;;;;;;;;;5008753;28;20018;-83
2020/12/24 19:04:01;;;;;;;2.10;0.63;;;;;;;;;;5016922;28;20032;-84
2020/12/24 19:06:28;;;;;;;1.60;0.70;;;;;;;;;;5014088;28;20120;-84
2020/12/24 19:08:56;;;;;;;2.80;1.05;;;;;;;;;;5008915;28;20028;-85
2020/12/24 19:11:25;;;;;;;3.50;2.00;;;;;;;;;;5016947;28;20018;-83
2020/12/24 19:13:51;;;;;;;3.38;1.23;;;;;;;;;;5009994;28;20026;-84
2020/12/24 19:16:17;;;;;;;2.28;0.90;;;;;;;;;;5004501;28;20071;-83
2020/12/24 19:18:43;;;;;;;2.40;0.90;;;;;;;;;;5007330;28;20030;-84
2020/12/24 19:21:13;;;;;;;2.30;1.17;;;;;;;;;;4998067;28;20018;-83
2020/12/24 19:24:07;;;;;;;5.93;2.28;;;;;;;;;;4996982;28;20117;-83
2020/12/24 19:26:35;;;;;;;2.95;1.40;;;;;;;;;;5022563;28;20049;-84
2020/12/24 19:29:01;;;;;;;4.22;1.50;;;;;;;;;;5011344;28;20026;-83
2020/12/24 19:31:27;;;;;;;4.13;1.83;;;;;;;;;;4996816;28;20109;-84
2020/12/24 19:33:53;;;;;;;5.60;3.67;;;;;;;;;;4997039;28;20494;-83
2020/12/24 19:36:21;;;;;;;5.28;1.83;;;;;;;;;;5029917;28;20026;-84
2020/12/24 19:38:47;;;;;;;2.55;0.90;;;;;;;;;;5018722;28;20010;-84
2020/12/24 19:41:14;;;;;;;14.90;6.53;;;;;;;;;;5015220;28;20108;-84
2020/12/24 19:43:43;;;;;;;6.90;3.45;;;;;;;;;;5016583;28;20427;-84
2020/12/24 19:46:09;;;;;;;10.52;4.65;;;;;;;;;;5012058;28;20022;-84
2020/12/24 19:48:35;;;;;;;4.53;1.88;;;;;;;;;;5022822;28;20033;-84
2020/12/24 19:51:05;;;;;;;4.43;2.75;;;;;;;;;;5011404;28;20026;-84
2020/12/24 19:53:32;;;;;;;6.82;3.20;;;;;;;;;;5016400;28;20632;-83
2020/12/24 19:55:58;;;;;;;8.50;4.88;;;;;;;;;;5004384;28;20033;-84
2020/12/24 19:58:24;;;;;;;3.85;2.10;;;;;;;;;;4999360;28;20034;-84
2020/12/24 20:00:50;;;;;;;7.35;2.72;;;;;;;;;;5024162;28;20513;-83
2020/12/24 20:03:16;;;;;;;5.03;2.17;;;;;;;;;;5014266;28;20046;-84
2020/12/24 20:08:01;;;;;;;6.90;2.92;;;;;;;;;;5117067;27;20347;-84
2020/12/24 20:10:27;;;;;;;5.03;2.42;;;;;;;;;;5110520;28;20028;-84
2020/12/24 20:12:53;;;;;;;3.15;1.23;;;;;;;;;;5098621;28;20021;-85
2020/12/24 20:15:19;;;;;;;2.67;1.40;;;;;;;;;;5093936;28;20427;-84
2020/12/24 20:17:45;;;;;;;4.88;2.17;;;;;;;;;;5101757;28;20020;-85
2020/12/24 20:20:11;;;;;;;7.25;3.25;;;;;;;;;;5093099;28;20051;-86
2020/12/24 20:22:37;;;;;;;6.18;2.50;;;;;;;;;;5110071;28;20023;-85
2020/12/24 20:25:03;;;;;;;5.40;2.65;;;;;;;;;;5096470;28;20031;-84
2020/12/24 20:27:29;;;;;;;2.70;1.30;;;;;;;;;;5105264;28;20097;-85
2020/12/24 20:29:55;;;;;;;8.05;3.65;;;;;;;;;;5097458;28;20024;-84
2020/12/24 20:32:21;;;;;;;8.65;4.38;;;;;;;;;;5090348;28;20031;-85
2020/12/24 20:34:47;;;;;;;6.97;3.78;;;;;;;;;;5105790;28;20425;-85
2020/12/24 20:37:13;;;;;;;4.15;2.30;;;;;;;;;;5104636;28;20032;-85
2020/12/24 20:39:39;;;;;;;4.60;2.10;;;;;;;;;;5104605;28;20029;-85
2020/12/24 20:42:05;;;;;;;7.20;3.35;;;;;;;;;;5092103;28;20024;-85
2020/12/24 20:44:31;;;;;;;5.35;2.85;;;;;;;;;;5099032;28;20020;-85
2020/12/24 20:46:59;;;;;;;3.80;1.50;;;;;;;;;;5089520;28;20036;-85
2020/12/24 20:49:25;;;;;;;4.82;1.95;;;;;;;;;;5090797;28;20430;-87
2020/12/24 20:51:51;;;;;;;4.20;1.83;;;;;;;;;;5093274;28;20024;-87
2020/12/24 20:54:17;;;;;;;4.63;2.10;;;;;;;;;;5098198;28;20099;-85
2020/12/24 20:56:43;;;;;;;2.67;1.55;;;;;;;;;;5091666;28;20028;-84
2020/12/24 20:59:09;;;;;;;4.85;2.60;;;;;;;;;;5097032;28;20059;-85
2020/12/24 21:01:39;;;;;;;4.68;2.40;;;;;;;;;;5091141;28;20488;-85
2020/12/24 21:04:05;;;;;;;5.25;2.67;;;;;;;;;;5088947;28;20043;-85
2020/12/24 21:06:31;;;;;;;6.72;3.28;;;;;;;;;;5087279;28;20046;-85